• Join FlightAware (Why Join?)
  • Login
  • US Flag 
08:43AM EDT


 

Airport Tracker/Info


-or-


 

Live Flight TrackerFlight Track Log ✈ SWA398 ✈ 15-May-2013 ✈ KDEN - KRNO

Flight Track Log - Related Links

Times and Time Zones

All times are in EDT time to prevent confusion due to time zone crossing. See the SWA398 flight status page for this flight to view local times or setup timezone preferences in your user account.

Time Position Orientation Groundspeed Altitude Reporting Facility
EDT Latitude Longitude Course Direction KTS MPH feet Rate Location/Type
10:41AM 39.8500 -104.7667 303° West 189 217 7,000  Level Denver TRACON
10:42AM 39.8833 -104.8333 303° West 241 277 8,500 1,500 Climbing Denver TRACON
10:43AM 39.9119 -104.9011 299° West 264 304 9,800 1,800 Climbing Denver Center
10:44AM 39.9494 -105.0097 294° West 326 375 11,900 3,240 Climbing Denver Center
10:45AM 39.9650 -105.1453 279° West 354 407 16,500 3,540 Climbing Denver Center
10:46AM 39.9778 -105.2653 278° West 339 390 19,300 1,980 Climbing Denver Center
10:47AM 39.9822 -105.4064 272° West 372 428 20,700 1,740 Climbing Denver Center
10:48AM 39.9781 -105.5542 268° West 412 474 22,900 1,860 Climbing Denver Center
10:49AM 39.9750 -105.7144 269° West 414 476 24,600 1,740 Climbing Denver Center
10:50AM 39.9719 -105.8594 268° West 411 473 26,600 1,860 Climbing Denver Center
10:51AM 39.9792 -106.0139 274° West 425 489 28,500 1,740 Climbing Denver Center
10:52AM 39.9872 -106.1744 274° West 441 507 30,200 1,920 Climbing Denver Center
10:53AM 39.9967 -106.3339 274° West 441 507 32,500 2,160 Climbing Denver Center
10:54AM 40.0061 -106.5097 274° West 427 491 34,700 1,860 Climbing Denver Center
10:55AM 40.0142 -106.6797 274° West 423 487 36,400 1,320 Climbing Denver Center
10:56AM 40.0211 -106.8258 274° West 422 486 37,500 540 Climbing Denver Center
10:58AM 40.0333 -107.0958 273° West 426 490 38,000 240 Climbing Salt Lake Center
10:58AM 40.0353 -107.1458 273° West 427 491 38,000  Level Denver Center
10:59AM 40.0436 -107.3181 274° West 426 490 38,000  Level Denver Center
11:00AM 40.0492 -107.4642 273° West 424 488 38,000  Level Denver Center
11:01AM 40.0558 -107.6094 273° West 422 486 38,000  Level Denver Center
11:02AM 40.0619 -107.7789 273° West 420 483 38,000  Level Denver Center
11:03AM 40.0681 -107.9233 273° West 418 481 38,000  Level Denver Center
11:04AM 40.1025 -108.0872 285° West 420 483 38,000  Level Denver Center
11:06AM 40.1322 -108.2283 285° West 422 486 38,000  Level Denver Center
11:07AM 40.1658 -108.3931 285° West 423 487 38,000  Level Denver Center
11:08AM 40.1953 -108.5339 285° West 423 487 38,000  Level Denver Center
11:08AM 40.2200 -108.6531 285° West 426 490 38,000  Level Salt Lake Center
11:09AM 40.2486 -108.7961 285° West 427 491 38,000  Level Salt Lake Center
11:10AM 40.2825 -108.9633 285° West 427 491 38,000  Level Salt Lake Center
11:11AM 40.3114 -109.1072 285° West 428 493 38,000  Level Salt Lake Center
11:12AM 40.3208 -109.1547 285° West 426 490 38,000  Level Denver Center
11:12AM 40.3453 -109.2742 285° West 426 490 38,000  Level Salt Lake Center
11:13AM 40.3731 -109.4186 284° West 427 491 38,000  Level Salt Lake Center
11:14AM 40.4069 -109.5850 285° West 425 489 38,000  Level Salt Lake Center
11:15AM 40.4336 -109.7300 284° West 427 491 38,000  Level Salt Lake Center
11:17AM 40.4672 -109.8978 285° West 426 490 38,000  Level Salt Lake Center
11:18AM 40.4942 -110.0411 284° West 424 488 38,000  Level Salt Lake Center
11:19AM 40.5217 -110.1844 284° West 424 488 38,000  Level Salt Lake Center
11:20AM 40.5536 -110.3519 284° West 423 487 38,000  Level Salt Lake Center
11:21AM 40.5819 -110.4956 285° West 422 486 38,000  Level Salt Lake Center
11:22AM 40.6122 -110.6575 284° West 422 486 38,000  Level Salt Lake Center
11:23AM 40.6397 -110.8078 284° West 423 487 38,000  Level Salt Lake Center
11:24AM 40.6681 -110.9586 284° West 425 489 38,000  Level Salt Lake Center
11:25AM 40.6964 -111.1097 284° West 426 490 38,000  Level Salt Lake Center
11:26AM 40.7289 -111.2914 283° West 426 490 38,000  Level Salt Lake Center
11:27AM 40.7556 -111.4422 283° West 424 488 38,000  Level Salt Lake Center
11:28AM 40.7831 -111.5928 284° West 420 483 38,000  Level Salt Lake Center
11:29AM 40.8100 -111.7447 283° West 421 484 38,000  Level Salt Lake Center
11:30AM 40.8369 -111.8983 283° West 422 486 38,000  Level Salt Lake Center
11:31AM 40.8478 -112.0528 275° West 418 481 38,000  Level Salt Lake Center
11:32AM 40.8356 -112.2100 264° West 425 489 38,000  Level Salt Lake Center
11:33AM 40.8264 -112.3636 266° West 421 484 38,000  Level Salt Lake Center
11:34AM 40.8136 -112.5478 265° West 421 484 38,000  Level Salt Lake Center
11:35AM 40.8039 -112.7008 265° West 419 482 38,000  Level Salt Lake Center
11:36AM 40.7928 -112.8550 265° West 422 486 38,000  Level Salt Lake Center
11:37AM 40.7822 -113.0075 265° West 418 481 38,000  Level Salt Lake Center
11:38AM 40.7714 -113.1611 265° West 421 484 38,000  Level Salt Lake Center
11:39AM 40.7614 -113.3136 265° West 419 482 38,000  Level Salt Lake Center
11:40AM 40.7458 -113.4961 264° West 419 482 38,000  Level Salt Lake Center
11:41AM 40.7342 -113.6492 264° West 421 484 38,000  Level Salt Lake Center
11:42AM 40.7242 -113.8011 265° West 418 481 38,000  Level Salt Lake Center
11:43AM 40.7183 -113.9561 267° West 423 487 38,000  Level Salt Lake Center
11:44AM 40.7128 -114.1097 267° West 422 486 38,000  Level Salt Lake Center
11:45AM 40.7067 -114.2642 267° West 423 487 38,000  Level Salt Lake Center
11:46AM 40.6989 -114.4500 267° West 423 487 38,000  Level Salt Lake Center
11:48AM 40.6936 -114.6067 268° West 428 493 38,000  Level Salt Lake Center
11:49AM 40.6864 -114.7625 267° West 428 493 38,000  Level Salt Lake Center
11:50AM 40.6792 -114.9294 267° West 430 495 38,000  Level Salt Lake Center
11:51AM 40.6717 -115.0803 266° West 430 495 38,000  Level Salt Lake Center
11:52AM 40.6603 -115.2544 265° West 427 491 38,000  Level Salt Lake Center
11:53AM 40.6525 -115.4039 266° West 428 493 38,000  Level Salt Lake Center
11:54AM 40.6450 -115.5769 267° West 424 488 38,000  Level Salt Lake Center
11:55AM 40.6364 -115.7236 266° West 423 487 38,000  Level Salt Lake Center
11:56AM 40.6278 -115.8933 266° West 417 480 38,000  Level Salt Lake Center
11:57AM 40.6211 -116.0397 267° West 418 481 38,000  Level Salt Lake Center
11:58AM 40.6136 -116.1836 266° West 414 476 38,000  Level Salt Lake Center
11:59AM 40.6028 -116.3522 265° West 414 476 38,000  Level Salt Lake Center
12:00PM 40.5950 -116.4944 266° West 411 473 38,000  Level Salt Lake Center
12:01PM 40.5853 -116.6611 266° West 411 473 38,000  Level Salt Lake Center
12:02PM 40.5767 -116.8025 265° West 411 473 38,000  Level Salt Lake Center
12:03PM 40.5608 -116.9664 263° West 411 473 38,000  Level Salt Lake Center
12:04PM 40.5172 -117.1222 250° West 411 473 38,000  Level Salt Lake Center
12:05PM 40.4814 -117.2567 251° West 412 474 38,000  Level Salt Lake Center
12:06PM 40.4400 -117.4125 251° West 408 470 38,000  Level Salt Lake Center
12:07PM 40.4264 -117.5517 263° West 402 463 38,000  Level Salt Lake Center
12:08PM 40.4136 -117.6908 263° West 400 460 38,000  Level Salt Lake Center
12:08PM 40.4097 -117.7369 264° West 401 461 38,000  Level Oakland Center
12:09PM 40.3964 -117.8997 264° West 402 463 38,000  Level Oakland Center
12:10PM 40.3892 -117.9911 264° West 399 459 38,000  Level Salt Lake Center
12:11PM 40.3500 -118.1461 252° West 401 461 38,000  Level Salt Lake Center
12:12PM 40.3436 -118.1703 251° West 409 471 38,000 -360 Level Oakland Center
12:13PM 40.3028 -118.3044 248° West 401 461 37,600 -1,260 Descending Oakland Center
12:14PM 40.2625 -118.4428 249° West 404 465 35,500 -2,880 Descending Oakland Center
12:15PM 40.2108 -118.6044 247° West 404 465 31,800 -3,360 Descending Oakland Center
12:16PM 40.1689 -118.7431 248° West 410 472 28,700 -2,280 Descending Oakland Center
12:17PM 40.1286 -118.8797 249° West 404 465 27,200 -2,220 Descending Oakland Center
12:17PM 40.0950 -118.9800 246° West 393 452 24,700 -2,940 Descending Salt Lake Center
12:19PM 40.0556 -119.1106 248° West 389 448 21,800 -2,640 Descending Salt Lake Center
12:20PM 40.0156 -119.2372 248° West 382 440 19,400 -2,340 Descending Salt Lake Center
12:21PM 39.9700 -119.3839 248° West 364 419 16,700 -2,400 Descending Oakland Center
12:22PM 39.9383 -119.5047 251° West 357 411 14,100 -2,760 Descending Oakland Center
12:23PM 39.9114 -119.6550 257° West 356 410 11,200 -1,740 Descending Oakland Center
12:24PM 39.8000 -119.7500 213° Southwest 274 315 9,500 -1,080 Descending Northern Cal TRACON
12:25PM 39.7708 -119.7581 192° South 286 329 9,100 -1,020 Descending Oakland Center
12:26PM 39.6667 -119.7667 184° South 204 235 7,500 -1,020 Descending Northern Cal TRACON
12:27PM 39.6167 -119.7667 180° South 176 203 6,500 -900 Descending Northern Cal TRACON
12:28PM 39.5833 -119.7667 180° South 152 175 5,800 -900 Descending Northern Cal TRACON
12:29PM 39.5333 -119.7667 180° South 148 170 4,900 -900 Descending Northern Cal TRACON
12:31PM 39.4991 -119.7681 188° South  Level Estimated
12:38PM 39.4991 -119.7681 188° South  Level Estimated